sensor_id;sensor_type;location;lat;lon;timestamp;temperature;humidity
40053;DHT22;25758;48.200;16.338;2023-06-22T00:00:58;23.80;99.90
40053;DHT22;25758;48.200;16.338;2023-06-22T00:03:24;23.80;99.90
40053;DHT22;25758;48.200;16.338;2023-06-22T00:05:50;23.70;99.90
40053;DHT22;25758;48.200;16.338;2023-06-22T00:08:16;23.70;99.90
40053;DHT22;25758;48.200;16.338;2023-06-22T00:10:43;23.70;99.90
40053;DHT22;25758;48.200;16.338;2023-06-22T00:13:09;23.70;99.90
40053;DHT22;25758;48.200;16.338;2023-06-22T00:15:37;23.70;99.90
40053;DHT22;25758;48.200;16.338;2023-06-22T00:18:03;23.70;99.90
40053;DHT22;25758;48.200;16.338;2023-06-22T00:20:29;23.80;99.90
40053;DHT22;25758;48.200;16.338;2023-06-22T00:22:56;23.80;99.90
40053;DHT22;25758;48.200;16.338;2023-06-22T00:25:22;23.70;99.90
40053;DHT22;25758;48.200;16.338;2023-06-22T00:27:48;23.70;99.90
40053;DHT22;25758;48.200;16.338;2023-06-22T00:30:18;23.70;99.90
40053;DHT22;25758;48.200;16.338;2023-06-22T00:32:44;23.80;99.90
40053;DHT22;25758;48.200;16.338;2023-06-22T00:35:11;23.80;99.90
40053;DHT22;25758;48.200;16.338;2023-06-22T00:37:37;23.80;99.90
40053;DHT22;25758;48.200;16.338;2023-06-22T00:40:04;23.80;99.90
40053;DHT22;25758;48.200;16.338;2023-06-22T00:42:30;23.70;99.90
40053;DHT22;25758;48.200;16.338;2023-06-22T00:44:56;23.70;99.90
40053;DHT22;25758;48.200;16.338;2023-06-22T00:47:22;23.70;99.90
40053;DHT22;25758;48.200;16.338;2023-06-22T00:49:49;23.60;99.90
40053;DHT22;25758;48.200;16.338;2023-06-22T00:52:19;23.60;99.90
40053;DHT22;25758;48.200;16.338;2023-06-22T00:54:51;23.50;99.90
40053;DHT22;25758;48.200;16.338;2023-06-22T00:57:17;23.40;99.90
40053;DHT22;25758;48.200;16.338;2023-06-22T00:59:45;23.30;99.90
40053;DHT22;25758;48.200;16.338;2023-06-22T01:02:11;23.30;99.90
40053;DHT22;25758;48.200;16.338;2023-06-22T01:04:38;23.20;99.90
40053;DHT22;25758;48.200;16.338;2023-06-22T01:12:30;23.00;99.90
40053;DHT22;25758;48.200;16.338;2023-06-22T01:15:08;22.90;99.90
40053;DHT22;25758;48.200;16.338;2023-06-22T01:17:36;22.80;99.90
40053;DHT22;25758;48.200;16.338;2023-06-22T01:20:06;22.80;99.90
40053;DHT22;25758;48.200;16.338;2023-06-22T01:22:46;22.80;99.90
40053;DHT22;25758;48.200;16.338;2023-06-22T01:26:16;22.70;99.90
40053;DHT22;25758;48.200;16.338;2023-06-22T01:28:54;22.70;99.90
40053;DHT22;25758;48.200;16.338;2023-06-22T01:31:23;22.60;99.90
40053;DHT22;25758;48.200;16.338;2023-06-22T01:33:59;22.60;99.90
40053;DHT22;25758;48.200;16.338;2023-06-22T01:36:26;22.50;99.90
40053;DHT22;25758;48.200;16.338;2023-06-22T01:38:52;22.50;99.90
40053;DHT22;25758;48.200;16.338;2023-06-22T01:41:20;22.40;99.90
40053;DHT22;25758;48.200;16.338;2023-06-22T01:43:46;22.40;99.90
40053;DHT22;25758;48.200;16.338;2023-06-22T01:46:13;22.40;99.90
40053;DHT22;25758;48.200;16.338;2023-06-22T01:48:40;22.30;99.90
40053;DHT22;25758;48.200;16.338;2023-06-22T01:51:06;22.20;99.90
40053;DHT22;25758;48.200;16.338;2023-06-22T01:53:32;22.20;99.90
40053;DHT22;25758;48.200;16.338;2023-06-22T01:55:57;22.20;99.90
40053;DHT22;25758;48.200;16.338;2023-06-22T01:58:26;22.20;99.90
40053;DHT22;25758;48.200;16.338;2023-06-22T02:01:12;22.20;99.90
40053;DHT22;25758;48.200;16.338;2023-06-22T02:03:44;22.20;99.90
40053;DHT22;25758;48.200;16.338;2023-06-22T02:06:25;22.20;99.90
40053;DHT22;25758;48.200;16.338;2023-06-22T02:08:59;22.20;99.90
40053;DHT22;25758;48.200;16.338;2023-06-22T02:11:28;22.30;99.90
40053;DHT22;25758;48.200;16.338;2023-06-22T02:13:55;22.20;99.90
40053;DHT22;25758;48.200;16.338;2023-06-22T02:16:23;22.20;99.90
40053;DHT22;25758;48.200;16.338;2023-06-22T02:18:50;22.20;99.90
40053;DHT22;25758;48.200;16.338;2023-06-22T02:21:21;22.20;99.90
40053;DHT22;25758;48.200;16.338;2023-06-22T02:23:47;22.20;99.90
40053;DHT22;25758;48.200;16.338;2023-06-22T02:26:13;22.10;99.90
40053;DHT22;25758;48.200;16.338;2023-06-22T02:28:39;22.00;99.90
40053;DHT22;25758;48.200;16.338;2023-06-22T02:31:04;21.90;99.90
40053;DHT22;25758;48.200;16.338;2023-06-22T02:33:30;21.90;99.90
40053;DHT22;25758;48.200;16.338;2023-06-22T02:35:56;21.90;99.90
40053;DHT22;25758;48.200;16.338;2023-06-22T02:38:21;22.00;99.90
40053;DHT22;25758;48.200;16.338;2023-06-22T02:40:50;22.00;99.90
40053;DHT22;25758;48.200;16.338;2023-06-22T02:43:15;22.10;99.90
40053;DHT22;25758;48.200;16.338;2023-06-22T02:45:41;22.00;99.90
40053;DHT22;25758;48.200;16.338;2023-06-22T02:48:06;22.10;99.90
40053;DHT22;25758;48.200;16.338;2023-06-22T02:50:32;22.10;99.90
40053;DHT22;25758;48.200;16.338;2023-06-22T02:52:58;22.10;99.90
40053;DHT22;25758;48.200;16.338;2023-06-22T02:55:23;22.10;99.90
40053;DHT22;25758;48.200;16.338;2023-06-22T02:57:49;22.10;99.90
40053;DHT22;25758;48.200;16.338;2023-06-22T03:00:18;22.10;99.90
40053;DHT22;25758;48.200;16.338;2023-06-22T03:02:45;22.10;99.90
40053;DHT22;25758;48.200;16.338;2023-06-22T03:05:11;22.00;99.90
40053;DHT22;25758;48.200;16.338;2023-06-22T03:07:40;22.00;99.90
40053;DHT22;25758;48.200;16.338;2023-06-22T03:10:07;21.90;99.90
40053;DHT22;25758;48.200;16.338;2023-06-22T03:12:32;21.90;99.90
40053;DHT22;25758;48.200;16.338;2023-06-22T03:14:58;21.80;99.90
40053;DHT22;25758;48.200;16.338;2023-06-22T03:17:24;21.80;99.90
40053;DHT22;25758;48.200;16.338;2023-06-22T03:19:49;21.80;99.90
40053;DHT22;25758;48.200;16.338;2023-06-22T03:22:15;21.70;99.90
40053;DHT22;25758;48.200;16.338;2023-06-22T03:24:41;21.60;99.90
40053;DHT22;25758;48.200;16.338;2023-06-22T03:27:06;21.70;99.90
40053;DHT22;25758;48.200;16.338;2023-06-22T03:29:32;21.70;99.90
40053;DHT22;25758;48.200;16.338;2023-06-22T03:31:58;21.70;99.90
40053;DHT22;25758;48.200;16.338;2023-06-22T03:34:23;21.60;99.90
40053;DHT22;25758;48.200;16.338;2023-06-22T03:36:49;21.70;99.90
40053;DHT22;25758;48.200;16.338;2023-06-22T03:39:14;21.70;99.90
40053;DHT22;25758;48.200;16.338;2023-06-22T03:41:40;21.70;99.90
40053;DHT22;25758;48.200;16.338;2023-06-22T03:44:05;21.70;99.90
40053;DHT22;25758;48.200;16.338;2023-06-22T03:46:31;21.70;99.90
40053;DHT22;25758;48.200;16.338;2023-06-22T03:48:57;21.70;99.90
40053;DHT22;25758;48.200;16.338;2023-06-22T03:51:23;21.80;99.90
40053;DHT22;25758;48.200;16.338;2023-06-22T03:53:48;21.90;99.90
40053;DHT22;25758;48.200;16.338;2023-06-22T03:56:14;22.00;99.90
40053;DHT22;25758;48.200;16.338;2023-06-22T03:58:45;22.00;99.90
40053;DHT22;25758;48.200;16.338;2023-06-22T04:01:11;22.00;99.90
40053;DHT22;25758;48.200;16.338;2023-06-22T04:03:37;22.10;99.90
40053;DHT22;25758;48.200;16.338;2023-06-22T04:06:03;22.20;99.90
40053;DHT22;25758;48.200;16.338;2023-06-22T04:08:29;22.20;99.90
40053;DHT22;25758;48.200;16.338;2023-06-22T04:10:55;22.20;99.90
40053;DHT22;25758;48.200;16.338;2023-06-22T04:13:20;22.30;99.90
40053;DHT22;25758;48.200;16.338;2023-06-22T04:15:46;22.40;99.90
40053;DHT22;25758;48.200;16.338;2023-06-22T04:18:11;22.40;99.90
40053;DHT22;25758;48.200;16.338;2023-06-22T04:20:39;22.50;99.90
40053;DHT22;25758;48.200;16.338;2023-06-22T04:23:04;22.50;99.90
40053;DHT22;25758;48.200;16.338;2023-06-22T04:25:30;22.60;99.90
40053;DHT22;25758;48.200;16.338;2023-06-22T04:27:56;22.60;99.90
40053;DHT22;25758;48.200;16.338;2023-06-22T04:30:21;22.70;99.90
40053;DHT22;25758;48.200;16.338;2023-06-22T04:32:47;22.70;99.90
40053;DHT22;25758;48.200;16.338;2023-06-22T04:35:26;22.70;99.90
40053;DHT22;25758;48.200;16.338;2023-06-22T04:37:53;22.70;99.90
40053;DHT22;25758;48.200;16.338;2023-06-22T04:40:23;22.80;99.90
40053;DHT22;25758;48.200;16.338;2023-06-22T04:42:48;22.80;99.90
40053;DHT22;25758;48.200;16.338;2023-06-22T04:45:19;22.80;99.90
40053;DHT22;25758;48.200;16.338;2023-06-22T04:47:45;22.90;99.90
40053;DHT22;25758;48.200;16.338;2023-06-22T04:50:14;22.90;99.90
40053;DHT22;25758;48.200;16.338;2023-06-22T04:52:39;22.90;99.90
40053;DHT22;25758;48.200;16.338;2023-06-22T04:55:06;22.90;99.90
40053;DHT22;25758;48.200;16.338;2023-06-22T04:57:31;23.00;99.90
40053;DHT22;25758;48.200;16.338;2023-06-22T05:00:01;23.00;99.90
40053;DHT22;25758;48.200;16.338;2023-06-22T05:02:40;22.90;99.90
40053;DHT22;25758;48.200;16.338;2023-06-22T05:05:06;23.00;99.90
40053;DHT22;25758;48.200;16.338;2023-06-22T05:07:36;23.00;99.90
40053;DHT22;25758;48.200;16.338;2023-06-22T05:10:04;23.00;99.90
40053;DHT22;25758;48.200;16.338;2023-06-22T05:12:30;23.00;99.90
40053;DHT22;25758;48.200;16.338;2023-06-22T05:14:56;23.10;99.90
40053;DHT22;25758;48.200;16.338;2023-06-22T05:17:22;23.10;99.90
40053;DHT22;25758;48.200;16.338;2023-06-22T05:19:48;23.10;99.90
40053;DHT22;25758;48.200;16.338;2023-06-22T05:22:17;23.10;99.90
40053;DHT22;25758;48.200;16.338;2023-06-22T05:24:43;23.10;99.90
40053;DHT22;25758;48.200;16.338;2023-06-22T05:27:09;23.10;99.90
40053;DHT22;25758;48.200;16.338;2023-06-22T05:29:36;23.20;99.90
40053;DHT22;25758;48.200;16.338;2023-06-22T05:32:02;23.20;99.90
40053;DHT22;25758;48.200;16.338;2023-06-22T05:34:28;23.20;99.90
40053;DHT22;25758;48.200;16.338;2023-06-22T05:36:54;23.30;99.90
40053;DHT22;25758;48.200;16.338;2023-06-22T05:39:19;23.30;99.90
40053;DHT22;25758;48.200;16.338;2023-06-22T05:41:45;23.30;99.90
40053;DHT22;25758;48.200;16.338;2023-06-22T05:44:11;23.30;99.90
40053;DHT22;25758;48.200;16.338;2023-06-22T05:46:41;23.40;99.90
40053;DHT22;25758;48.200;16.338;2023-06-22T05:49:10;23.40;99.90
40053;DHT22;25758;48.200;16.338;2023-06-22T05:51:35;23.40;99.90
40053;DHT22;25758;48.200;16.338;2023-06-22T05:54:01;23.50;99.90
40053;DHT22;25758;48.200;16.338;2023-06-22T05:56:27;23.50;99.90
40053;DHT22;25758;48.200;16.338;2023-06-22T05:58:52;23.50;99.90
40053;DHT22;25758;48.200;16.338;2023-06-22T06:01:18;23.60;99.90
40053;DHT22;25758;48.200;16.338;2023-06-22T06:03:43;23.60;99.90
40053;DHT22;25758;48.200;16.338;2023-06-22T06:06:09;23.60;99.90
40053;DHT22;25758;48.200;16.338;2023-06-22T06:08:37;23.70;99.90
40053;DHT22;25758;48.200;16.338;2023-06-22T06:11:02;23.70;99.90
40053;DHT22;25758;48.200;16.338;2023-06-22T06:13:28;23.70;99.90
40053;DHT22;25758;48.200;16.338;2023-06-22T06:15:53;23.80;99.90
40053;DHT22;25758;48.200;16.338;2023-06-22T06:18:22;23.80;99.90
40053;DHT22;25758;48.200;16.338;2023-06-22T06:20:48;23.90;99.90
40053;DHT22;25758;48.200;16.338;2023-06-22T06:23:13;23.90;99.90
40053;DHT22;25758;48.200;16.338;2023-06-22T06:25:40;23.90;99.90
40053;DHT22;25758;48.200;16.338;2023-06-22T06:28:06;24.00;99.90
40053;DHT22;25758;48.200;16.338;2023-06-22T06:30:32;24.00;99.90
40053;DHT22;25758;48.200;16.338;2023-06-22T06:32:57;24.00;99.90
40053;DHT22;25758;48.200;16.338;2023-06-22T06:35:23;24.10;99.90
40053;DHT22;25758;48.200;16.338;2023-06-22T06:37:50;24.10;99.90
40053;DHT22;25758;48.200;16.338;2023-06-22T06:40:17;24.10;99.90
40053;DHT22;25758;48.200;16.338;2023-06-22T06:42:45;24.20;99.90
40053;DHT22;25758;48.200;16.338;2023-06-22T06:45:18;24.20;99.90
40053;DHT22;25758;48.200;16.338;2023-06-22T06:47:44;24.20;99.90
40053;DHT22;25758;48.200;16.338;2023-06-22T06:50:10;24.20;99.90
40053;DHT22;25758;48.200;16.338;2023-06-22T06:52:36;24.30;99.90
40053;DHT22;25758;48.200;16.338;2023-06-22T06:55:02;24.40;99.90
40053;DHT22;25758;48.200;16.338;2023-06-22T06:57:31;24.40;99.90
40053;DHT22;25758;48.200;16.338;2023-06-22T06:59:57;24.40;99.90
40053;DHT22;25758;48.200;16.338;2023-06-22T07:02:25;24.50;99.90
40053;DHT22;25758;48.200;16.338;2023-06-22T07:04:51;24.60;99.90
40053;DHT22;25758;48.200;16.338;2023-06-22T07:07:17;24.60;99.90
40053;DHT22;25758;48.200;16.338;2023-06-22T07:09:42;24.80;99.90
40053;DHT22;25758;48.200;16.338;2023-06-22T07:12:08;24.90;99.90
40053;DHT22;25758;48.200;16.338;2023-06-22T07:14:34;25.00;99.90
40053;DHT22;25758;48.200;16.338;2023-06-22T07:16:59;25.10;99.90
40053;DHT22;25758;48.200;16.338;2023-06-22T07:19:26;25.20;99.90
40053;DHT22;25758;48.200;16.338;2023-06-22T07:21:54;25.30;99.90
40053;DHT22;25758;48.200;16.338;2023-06-22T07:24:24;25.50;99.90
40053;DHT22;25758;48.200;16.338;2023-06-22T07:26:50;25.50;99.90
40053;DHT22;25758;48.200;16.338;2023-06-22T07:29:20;25.70;99.90
40053;DHT22;25758;48.200;16.338;2023-06-22T07:31:47;25.80;99.90
40053;DHT22;25758;48.200;16.338;2023-06-22T07:34:13;26.10;99.90
40053;DHT22;25758;48.200;16.338;2023-06-22T07:36:39;26.40;99.90
40053;DHT22;25758;48.200;16.338;2023-06-22T07:39:05;26.80;99.90
40053;DHT22;25758;48.200;16.338;2023-06-22T07:41:31;27.10;99.90
40053;DHT22;25758;48.200;16.338;2023-06-22T07:43:56;27.50;99.90
40053;DHT22;25758;48.200;16.338;2023-06-22T07:46:23;27.90;99.90
40053;DHT22;25758;48.200;16.338;2023-06-22T07:48:48;28.10;99.90
40053;DHT22;25758;48.200;16.338;2023-06-22T07:51:14;28.40;99.90
40053;DHT22;25758;48.200;16.338;2023-06-22T07:53:44;28.60;99.90
40053;DHT22;25758;48.200;16.338;2023-06-22T07:56:13;28.70;99.90
40053;DHT22;25758;48.200;16.338;2023-06-22T07:58:39;28.90;99.90
40053;DHT22;25758;48.200;16.338;2023-06-22T08:01:05;29.10;99.90
40053;DHT22;25758;48.200;16.338;2023-06-22T08:03:31;29.20;99.90
40053;DHT22;25758;48.200;16.338;2023-06-22T08:05:57;29.30;99.90
40053;DHT22;25758;48.200;16.338;2023-06-22T08:08:23;29.40;99.90
40053;DHT22;25758;48.200;16.338;2023-06-22T08:10:49;29.60;99.90
40053;DHT22;25758;48.200;16.338;2023-06-22T08:13:15;29.70;99.90
40053;DHT22;25758;48.200;16.338;2023-06-22T08:15:41;29.70;99.90
40053;DHT22;25758;48.200;16.338;2023-06-22T08:18:06;29.90;99.90
40053;DHT22;25758;48.200;16.338;2023-06-22T08:20:32;29.90;99.90
40053;DHT22;25758;48.200;16.338;2023-06-22T08:22:58;30.00;99.90
40053;DHT22;25758;48.200;16.338;2023-06-22T08:25:26;30.00;99.90
40053;DHT22;25758;48.200;16.338;2023-06-22T08:27:51;30.00;99.90
40053;DHT22;25758;48.200;16.338;2023-06-22T08:30:17;30.10;99.90
40053;DHT22;25758;48.200;16.338;2023-06-22T08:32:44;30.20;99.90
40053;DHT22;25758;48.200;16.338;2023-06-22T08:35:09;30.30;99.90
40053;DHT22;25758;48.200;16.338;2023-06-22T08:37:35;30.50;99.90
40053;DHT22;25758;48.200;16.338;2023-06-22T08:40:03;30.50;99.90
40053;DHT22;25758;48.200;16.338;2023-06-22T08:42:36;30.50;99.80
40053;DHT22;25758;48.200;16.338;2023-06-22T08:45:02;30.50;99.50
40053;DHT22;25758;48.200;16.338;2023-06-22T08:47:28;30.50;99.60
40053;DHT22;25758;48.200;16.338;2023-06-22T08:49:54;30.60;99.40
40053;DHT22;25758;48.200;16.338;2023-06-22T08:52:20;30.60;99.30
40053;DHT22;25758;48.200;16.338;2023-06-22T08:54:46;30.60;99.40
40053;DHT22;25758;48.200;16.338;2023-06-22T08:57:12;30.60;99.10
40053;DHT22;25758;48.200;16.338;2023-06-22T08:59:38;30.60;98.80
40053;DHT22;25758;48.200;16.338;2023-06-22T09:02:03;30.60;98.50
40053;DHT22;25758;48.200;16.338;2023-06-22T09:04:29;30.60;98.80
40053;DHT22;25758;48.200;16.338;2023-06-22T09:06:55;30.60;99.10
40053;DHT22;25758;48.200;16.338;2023-06-22T09:09:21;30.70;99.00
40053;DHT22;25758;48.200;16.338;2023-06-22T09:11:47;30.70;98.20
40053;DHT22;25758;48.200;16.338;2023-06-22T09:14:13;30.60;98.20
40053;DHT22;25758;48.200;16.338;2023-06-22T09:16:38;30.60;98.10
40053;DHT22;25758;48.200;16.338;2023-06-22T09:19:04;30.50;98.40
40053;DHT22;25758;48.200;16.338;2023-06-22T09:21:30;30.50;98.20
40053;DHT22;25758;48.200;16.338;2023-06-22T09:23:56;30.60;98.80
40053;DHT22;25758;48.200;16.338;2023-06-22T09:26:22;30.60;98.80
40053;DHT22;25758;48.200;16.338;2023-06-22T09:28:49;30.60;99.10
40053;DHT22;25758;48.200;16.338;2023-06-22T09:31:15;30.60;98.60
40053;DHT22;25758;48.200;16.338;2023-06-22T09:33:42;30.50;98.70
40053;DHT22;25758;48.200;16.338;2023-06-22T09:36:08;29.20;98.40
40053;DHT22;25758;48.200;16.338;2023-06-22T09:38:37;30.60;98.80
40053;DHT22;25758;48.200;16.338;2023-06-22T09:41:03;30.60;98.60
40053;DHT22;25758;48.200;16.338;2023-06-22T09:43:31;30.60;98.40
40053;DHT22;25758;48.200;16.338;2023-06-22T09:45:57;30.60;98.50
40053;DHT22;25758;48.200;16.338;2023-06-22T09:48:22;30.70;98.60
40053;DHT22;25758;48.200;16.338;2023-06-22T09:50:48;30.70;98.60
40053;DHT22;25758;48.200;16.338;2023-06-22T09:53:14;30.80;98.30
40053;DHT22;25758;48.200;16.338;2023-06-22T09:55:39;30.80;98.20
40053;DHT22;25758;48.200;16.338;2023-06-22T09:58:05;30.80;98.20
40053;DHT22;25758;48.200;16.338;2023-06-22T10:00:30;30.90;98.50
40053;DHT22;25758;48.200;16.338;2023-06-22T10:02:56;30.90;98.20
40053;DHT22;25758;48.200;16.338;2023-06-22T10:05:22;30.90;98.10
40053;DHT22;25758;48.200;16.338;2023-06-22T10:07:48;30.90;98.00
40053;DHT22;25758;48.200;16.338;2023-06-22T10:10:14;30.90;98.30
40053;DHT22;25758;48.200;16.338;2023-06-22T10:12:55;30.90;98.10
40053;DHT22;25758;48.200;16.338;2023-06-22T10:15:22;30.80;98.20
40053;DHT22;25758;48.200;16.338;2023-06-22T10:17:47;30.90;98.30
40053;DHT22;25758;48.200;16.338;2023-06-22T10:20:13;30.90;98.10
40053;DHT22;25758;48.200;16.338;2023-06-22T10:22:40;30.90;97.60
40053;DHT22;25758;48.200;16.338;2023-06-22T10:25:07;30.90;98.00
40053;DHT22;25758;48.200;16.338;2023-06-22T10:27:33;30.90;98.10
40053;DHT22;25758;48.200;16.338;2023-06-22T10:29:59;30.90;97.40
40053;DHT22;25758;48.200;16.338;2023-06-22T10:32:24;30.90;97.60
40053;DHT22;25758;48.200;16.338;2023-06-22T10:34:50;31.00;97.40
40053;DHT22;25758;48.200;16.338;2023-06-22T10:37:15;31.00;97.50
40053;DHT22;25758;48.200;16.338;2023-06-22T10:39:41;31.00;97.60
40053;DHT22;25758;48.200;16.338;2023-06-22T10:42:07;31.10;96.70
40053;DHT22;25758;48.200;16.338;2023-06-22T10:44:32;31.10;96.70
40053;DHT22;25758;48.200;16.338;2023-06-22T10:46:58;31.10;96.80
40053;DHT22;25758;48.200;16.338;2023-06-22T10:49:23;31.10;96.20
40053;DHT22;25758;48.200;16.338;2023-06-22T10:51:49;31.10;96.50
40053;DHT22;25758;48.200;16.338;2023-06-22T10:54:15;31.10;95.90
40053;DHT22;25758;48.200;16.338;2023-06-22T10:56:43;31.10;95.80
40053;DHT22;25758;48.200;16.338;2023-06-22T10:59:09;31.10;97.00
40053;DHT22;25758;48.200;16.338;2023-06-22T11:01:34;31.10;95.80
40053;DHT22;25758;48.200;16.338;2023-06-22T11:04:00;31.20;95.70
40053;DHT22;25758;48.200;16.338;2023-06-22T11:06:25;31.10;95.20
40053;DHT22;25758;48.200;16.338;2023-06-22T11:08:51;31.10;94.60
40053;DHT22;25758;48.200;16.338;2023-06-22T11:11:17;31.10;95.10
40053;DHT22;25758;48.200;16.338;2023-06-22T11:13:43;31.00;94.40
40053;DHT22;25758;48.200;16.338;2023-06-22T11:16:09;31.10;94.40
40053;DHT22;25758;48.200;16.338;2023-06-22T11:18:35;31.00;94.80
40053;DHT22;25758;48.200;16.338;2023-06-22T11:21:01;31.10;94.10
40053;DHT22;25758;48.200;16.338;2023-06-22T11:23:27;30.90;94.40
40053;DHT22;25758;48.200;16.338;2023-06-22T11:25:54;30.90;94.60
40053;DHT22;25758;48.200;16.338;2023-06-22T11:28:19;30.90;94.40
40053;DHT22;25758;48.200;16.338;2023-06-22T11:30:45;31.00;94.70
40053;DHT22;25758;48.200;16.338;2023-06-22T11:33:11;31.00;95.30
40053;DHT22;25758;48.200;16.338;2023-06-22T11:35:36;31.00;95.00
40053;DHT22;25758;48.200;16.338;2023-06-22T11:38:02;31.10;94.70
40053;DHT22;25758;48.200;16.338;2023-06-22T11:40:29;31.10;94.90
40053;DHT22;25758;48.200;16.338;2023-06-22T11:42:55;31.10;94.20
40053;DHT22;25758;48.200;16.338;2023-06-22T11:45:20;31.10;94.10
40053;DHT22;25758;48.200;16.338;2023-06-22T11:47:46;30.90;94.40
40053;DHT22;25758;48.200;16.338;2023-06-22T11:50:12;30.90;94.80
40053;DHT22;25758;48.200;16.338;2023-06-22T11:52:38;31.00;94.50
40053;DHT22;25758;48.200;16.338;2023-06-22T11:55:04;31.00;94.70
40053;DHT22;25758;48.200;16.338;2023-06-22T11:57:33;31.00;94.80
40053;DHT22;25758;48.200;16.338;2023-06-22T11:59:59;31.00;94.20
40053;DHT22;25758;48.200;16.338;2023-06-22T12:02:25;30.90;94.80
40053;DHT22;25758;48.200;16.338;2023-06-22T12:04:50;30.90;94.60
40053;DHT22;25758;48.200;16.338;2023-06-22T12:07:18;30.90;94.90
40053;DHT22;25758;48.200;16.338;2023-06-22T12:09:43;30.90;94.40
40053;DHT22;25758;48.200;16.338;2023-06-22T12:12:09;30.90;94.70
40053;DHT22;25758;48.200;16.338;2023-06-22T12:14:35;30.90;93.70
40053;DHT22;25758;48.200;16.338;2023-06-22T12:17:01;30.80;94.30
40053;DHT22;25758;48.200;16.338;2023-06-22T12:19:26;30.80;94.20
40053;DHT22;25758;48.200;16.338;2023-06-22T12:21:52;30.80;94.40
40053;DHT22;25758;48.200;16.338;2023-06-22T12:24:18;30.90;94.90
40053;DHT22;25758;48.200;16.338;2023-06-22T12:26:43;30.80;95.00
40053;DHT22;25758;48.200;16.338;2023-06-22T12:29:09;30.90;94.70
40053;DHT22;25758;48.200;16.338;2023-06-22T12:31:36;30.90;94.40
40053;DHT22;25758;48.200;16.338;2023-06-22T12:34:04;30.90;94.40
40053;DHT22;25758;48.200;16.338;2023-06-22T12:36:29;30.90;94.10
40053;DHT22;25758;48.200;16.338;2023-06-22T12:38:55;31.00;94.30
40053;DHT22;25758;48.200;16.338;2023-06-22T12:41:21;30.90;94.50
40053;DHT22;25758;48.200;16.338;2023-06-22T12:43:46;30.90;94.40
40053;DHT22;25758;48.200;16.338;2023-06-22T12:46:12;30.90;94.30
40053;DHT22;25758;48.200;16.338;2023-06-22T12:48:37;30.90;94.50
40053;DHT22;25758;48.200;16.338;2023-06-22T12:51:07;30.90;94.20
40053;DHT22;25758;48.200;16.338;2023-06-22T12:53:34;30.90;94.30
40053;DHT22;25758;48.200;16.338;2023-06-22T12:55:59;30.90;94.30
40053;DHT22;25758;48.200;16.338;2023-06-22T12:58:25;30.90;94.60
40053;DHT22;25758;48.200;16.338;2023-06-22T13:00:50;30.90;94.90
40053;DHT22;25758;48.200;16.338;2023-06-22T13:03:16;30.90;94.30
40053;DHT22;25758;48.200;16.338;2023-06-22T13:05:42;30.90;94.00
40053;DHT22;25758;48.200;16.338;2023-06-22T13:08:07;30.90;94.50
40053;DHT22;25758;48.200;16.338;2023-06-22T13:10:33;30.90;94.20
40053;DHT22;25758;48.200;16.338;2023-06-22T13:12:59;30.90;94.30
40053;DHT22;25758;48.200;16.338;2023-06-22T13:15:28;30.90;94.00
40053;DHT22;25758;48.200;16.338;2023-06-22T13:17:54;30.90;94.00
40053;DHT22;25758;48.200;16.338;2023-06-22T13:20:20;31.00;93.90
40053;DHT22;25758;48.200;16.338;2023-06-22T13:22:45;31.00;93.60
40053;DHT22;25758;48.200;16.338;2023-06-22T13:25:11;30.90;93.80
40053;DHT22;25758;48.200;16.338;2023-06-22T13:27:41;31.00;93.60
40053;DHT22;25758;48.200;16.338;2023-06-22T13:30:08;31.00;93.90
40053;DHT22;25758;48.200;16.338;2023-06-22T13:32:34;31.00;93.90
40053;DHT22;25758;48.200;16.338;2023-06-22T13:35:00;30.90;93.80
40053;DHT22;25758;48.200;16.338;2023-06-22T13:37:26;31.00;93.90
40053;DHT22;25758;48.200;16.338;2023-06-22T13:39:51;30.90;94.00
40053;DHT22;25758;48.200;16.338;2023-06-22T13:42:17;30.90;94.10
40053;DHT22;25758;48.200;16.338;2023-06-22T13:44:43;30.90;94.00
40053;DHT22;25758;48.200;16.338;2023-06-22T13:47:08;31.00;94.00
40053;DHT22;25758;48.200;16.338;2023-06-22T13:49:34;30.90;94.10
40053;DHT22;25758;48.200;16.338;2023-06-22T13:52:00;31.00;94.00
40053;DHT22;25758;48.200;16.338;2023-06-22T13:54:26;30.90;94.00
40053;DHT22;25758;48.200;16.338;2023-06-22T13:56:51;30.90;93.80
40053;DHT22;25758;48.200;16.338;2023-06-22T13:59:17;30.90;94.10
40053;DHT22;25758;48.200;16.338;2023-06-22T14:01:43;30.80;94.10
40053;DHT22;25758;48.200;16.338;2023-06-22T14:04:09;30.90;93.90
40053;DHT22;25758;48.200;16.338;2023-06-22T14:06:35;30.90;94.00
40053;DHT22;25758;48.200;16.338;2023-06-22T14:09:00;30.90;94.20
40053;DHT22;25758;48.200;16.338;2023-06-22T14:11:26;30.80;94.10
40053;DHT22;25758;48.200;16.338;2023-06-22T14:13:52;30.80;94.30
40053;DHT22;25758;48.200;16.338;2023-06-22T14:16:18;30.80;94.50
40053;DHT22;25758;48.200;16.338;2023-06-22T14:18:45;30.80;94.50
40053;DHT22;25758;48.200;16.338;2023-06-22T14:21:10;30.80;94.50
40053;DHT22;25758;48.200;16.338;2023-06-22T14:23:36;30.80;94.60
40053;DHT22;25758;48.200;16.338;2023-06-22T14:26:03;30.80;94.90
40053;DHT22;25758;48.200;16.338;2023-06-22T14:28:29;30.80;94.70
40053;DHT22;25758;48.200;16.338;2023-06-22T14:30:54;30.80;94.60
40053;DHT22;25758;48.200;16.338;2023-06-22T14:33:21;30.80;94.70
40053;DHT22;25758;48.200;16.338;2023-06-22T14:35:47;30.80;94.70
40053;DHT22;25758;48.200;16.338;2023-06-22T14:38:13;30.90;94.70
40053;DHT22;25758;48.200;16.338;2023-06-22T14:40:38;30.90;94.70
40053;DHT22;25758;48.200;16.338;2023-06-22T14:43:04;30.90;94.70
40053;DHT22;25758;48.200;16.338;2023-06-22T14:45:29;30.90;94.90
40053;DHT22;25758;48.200;16.338;2023-06-22T14:47:55;30.90;94.80
40053;DHT22;25758;48.200;16.338;2023-06-22T14:50:21;30.80;94.60
40053;DHT22;25758;48.200;16.338;2023-06-22T14:52:46;30.90;94.70
40053;DHT22;25758;48.200;16.338;2023-06-22T14:55:12;30.80;94.80
40053;DHT22;25758;48.200;16.338;2023-06-22T14:57:37;30.80;94.60
40053;DHT22;25758;48.200;16.338;2023-06-22T15:00:03;30.80;94.90
40053;DHT22;25758;48.200;16.338;2023-06-22T15:02:31;30.70;95.10
40053;DHT22;25758;48.200;16.338;2023-06-22T15:04:56;30.70;95.20
40053;DHT22;25758;48.200;16.338;2023-06-22T15:07:22;30.70;95.10
40053;DHT22;25758;48.200;16.338;2023-06-22T15:09:48;30.60;95.20
40053;DHT22;25758;48.200;16.338;2023-06-22T15:12:13;30.70;95.20
40053;DHT22;25758;48.200;16.338;2023-06-22T15:14:40;30.80;95.30
40053;DHT22;25758;48.200;16.338;2023-06-22T15:17:07;30.70;95.50